sensor_id;sensor_type;location;lat;lon;timestamp;P1;durP1;ratioP1;P2;durP2;ratioP2
27199;SDS011;14714;48.106;11.546;2023-12-20T00:01:12;3.75;;;2.80;;
27199;SDS011;14714;48.106;11.546;2023-12-20T00:03:39;4.55;;;2.78;;
27199;SDS011;14714;48.106;11.546;2023-12-20T00:06:08;4.22;;;2.60;;
27199;SDS011;14714;48.106;11.546;2023-12-20T00:08:36;3.45;;;2.40;;
27199;SDS011;14714;48.106;11.546;2023-12-20T00:11:03;4.07;;;2.72;;
27199;SDS011;14714;48.106;11.546;2023-12-20T00:13:30;4.68;;;2.58;;
27199;SDS011;14714;48.106;11.546;2023-12-20T00:15:57;5.03;;;2.80;;
27199;SDS011;14714;48.106;11.546;2023-12-20T00:18:24;4.68;;;2.72;;
27199;SDS011;14714;48.106;11.546;2023-12-20T00:20:51;6.25;;;3.00;;
27199;SDS011;14714;48.106;11.546;2023-12-20T00:23:17;4.82;;;2.88;;
27199;SDS011;14714;48.106;11.546;2023-12-20T00:25:44;7.45;;;2.80;;
27199;SDS011;14714;48.106;11.546;2023-12-20T00:28:11;4.05;;;2.63;;
27199;SDS011;14714;48.106;11.546;2023-12-20T00:30:38;3.47;;;2.22;;
27199;SDS011;14714;48.106;11.546;2023-12-20T00:33:05;4.00;;;2.60;;
27199;SDS011;14714;48.106;11.546;2023-12-20T00:35:32;4.00;;;2.25;;
27199;SDS011;14714;48.106;11.546;2023-12-20T00:37:59;2.75;;;2.20;;
27199;SDS011;14714;48.106;11.546;2023-12-20T00:40:26;3.47;;;2.25;;
27199;SDS011;14714;48.106;11.546;2023-12-20T00:42:53;3.42;;;2.40;;
27199;SDS011;14714;48.106;11.546;2023-12-20T00:45:20;2.22;;;1.70;;
27199;SDS011;14714;48.106;11.546;2023-12-20T00:47:47;3.35;;;2.00;;
27199;SDS011;14714;48.106;11.546;2023-12-20T00:50:14;2.45;;;1.80;;
27199;SDS011;14714;48.106;11.546;2023-12-20T00:52:41;3.38;;;1.90;;
27199;SDS011;14714;48.106;11.546;2023-12-20T00:55:08;2.92;;;1.73;;
27199;SDS011;14714;48.106;11.546;2023-12-20T00:57:35;2.40;;;1.85;;
27199;SDS011;14714;48.106;11.546;2023-12-20T01:00:02;2.65;;;2.08;;
27199;SDS011;14714;48.106;11.546;2023-12-20T01:02:29;2.33;;;1.83;;
27199;SDS011;14714;48.106;11.546;2023-12-20T01:04:56;2.75;;;1.90;;
27199;SDS011;14714;48.106;11.546;2023-12-20T01:07:23;4.35;;;2.00;;
27199;SDS011;14714;48.106;11.546;2023-12-20T01:09:50;3.17;;;2.20;;
27199;SDS011;14714;48.106;11.546;2023-12-20T01:12:17;3.85;;;2.03;;
27199;SDS011;14714;48.106;11.546;2023-12-20T01:14:43;2.97;;;1.95;;
27199;SDS011;14714;48.106;11.546;2023-12-20T01:17:10;2.38;;;1.70;;
27199;SDS011;14714;48.106;11.546;2023-12-20T01:19:38;2.67;;;2.03;;
27199;SDS011;14714;48.106;11.546;2023-12-20T01:22:05;2.60;;;1.98;;
27199;SDS011;14714;48.106;11.546;2023-12-20T01:24:32;2.95;;;1.90;;
27199;SDS011;14714;48.106;11.546;2023-12-20T01:26:59;2.60;;;1.90;;
27199;SDS011;14714;48.106;11.546;2023-12-20T01:29:26;5.68;;;2.10;;
27199;SDS011;14714;48.106;11.546;2023-12-20T01:31:52;2.30;;;1.67;;
27199;SDS011;14714;48.106;11.546;2023-12-20T01:34:19;2.30;;;1.70;;
27199;SDS011;14714;48.106;11.546;2023-12-20T01:36:46;2.97;;;1.80;;
27199;SDS011;14714;48.106;11.546;2023-12-20T01:39:14;3.25;;;1.90;;
27199;SDS011;14714;48.106;11.546;2023-12-20T01:41:53;2.42;;;1.90;;
27199;SDS011;14714;48.106;11.546;2023-12-20T01:44:20;9.27;;;1.70;;
27199;SDS011;14714;48.106;11.546;2023-12-20T01:46:47;2.70;;;1.75;;
27199;SDS011;14714;48.106;11.546;2023-12-20T01:49:14;2.17;;;1.60;;
27199;SDS011;14714;48.106;11.546;2023-12-20T01:51:42;2.45;;;1.70;;
27199;SDS011;14714;48.106;11.546;2023-12-20T01:54:10;2.00;;;1.55;;
27199;SDS011;14714;48.106;11.546;2023-12-20T01:56:37;2.97;;;1.80;;
27199;SDS011;14714;48.106;11.546;2023-12-20T01:59:05;2.53;;;1.70;;
27199;SDS011;14714;48.106;11.546;2023-12-20T02:01:33;2.33;;;1.63;;
27199;SDS011;14714;48.106;11.546;2023-12-20T02:04:02;2.05;;;1.40;;
27199;SDS011;14714;48.106;11.546;2023-12-20T02:06:30;2.65;;;1.40;;
27199;SDS011;14714;48.106;11.546;2023-12-20T02:08:59;3.40;;;1.48;;
27199;SDS011;14714;48.106;11.546;2023-12-20T02:11:27;1.38;;;1.27;;
27199;SDS011;14714;48.106;11.546;2023-12-20T02:13:55;1.45;;;1.33;;
27199;SDS011;14714;48.106;11.546;2023-12-20T02:16:21;2.53;;;1.40;;
27199;SDS011;14714;48.106;11.546;2023-12-20T02:18:49;2.05;;;1.40;;
27199;SDS011;14714;48.106;11.546;2023-12-20T02:21:16;1.45;;;1.20;;
27199;SDS011;14714;48.106;11.546;2023-12-20T02:23:43;2.53;;;1.13;;
27199;SDS011;14714;48.106;11.546;2023-12-20T02:26:10;2.10;;;1.50;;
27199;SDS011;14714;48.106;11.546;2023-12-20T02:28:37;1.13;;;1.00;;
27199;SDS011;14714;48.106;11.546;2023-12-20T02:31:04;1.40;;;1.15;;
27199;SDS011;14714;48.106;11.546;2023-12-20T02:33:31;1.73;;;1.10;;
27199;SDS011;14714;48.106;11.546;2023-12-20T02:35:58;1.20;;;1.10;;
27199;SDS011;14714;48.106;11.546;2023-12-20T02:38:25;2.70;;;1.02;;
27199;SDS011;14714;48.106;11.546;2023-12-20T02:40:52;2.25;;;1.00;;
27199;SDS011;14714;48.106;11.546;2023-12-20T02:43:18;2.28;;;0.95;;
27199;SDS011;14714;48.106;11.546;2023-12-20T02:45:45;1.73;;;1.30;;
27199;SDS011;14714;48.106;11.546;2023-12-20T02:48:12;1.95;;;1.27;;
27199;SDS011;14714;48.106;11.546;2023-12-20T02:50:39;1.65;;;1.10;;
27199;SDS011;14714;48.106;11.546;2023-12-20T02:53:06;4.30;;;1.23;;
27199;SDS011;14714;48.106;11.546;2023-12-20T02:55:33;1.45;;;1.20;;
27199;SDS011;14714;48.106;11.546;2023-12-20T02:58:00;1.40;;;1.10;;
27199;SDS011;14714;48.106;11.546;2023-12-20T03:00:27;1.20;;;1.00;;
27199;SDS011;14714;48.106;11.546;2023-12-20T03:02:53;2.35;;;0.95;;
27199;SDS011;14714;48.106;11.546;2023-12-20T03:05:20;1.63;;;1.38;;
27199;SDS011;14714;48.106;11.546;2023-12-20T03:07:47;1.27;;;1.10;;
27199;SDS011;14714;48.106;11.546;2023-12-20T03:10:14;1.27;;;1.13;;
27199;SDS011;14714;48.106;11.546;2023-12-20T03:12:51;1.17;;;1.08;;
27199;SDS011;14714;48.106;11.546;2023-12-20T03:15:18;1.67;;;1.15;;
27199;SDS011;14714;48.106;11.546;2023-12-20T03:17:45;1.17;;;1.05;;
27199;SDS011;14714;48.106;11.546;2023-12-20T03:20:13;1.20;;;1.10;;
27199;SDS011;14714;48.106;11.546;2023-12-20T03:22:40;0.93;;;0.90;;
27199;SDS011;14714;48.106;11.546;2023-12-20T03:25:07;2.33;;;1.40;;
27199;SDS011;14714;48.106;11.546;2023-12-20T03:27:34;1.85;;;1.15;;
27199;SDS011;14714;48.106;11.546;2023-12-20T03:30:05;2.15;;;1.20;;
27199;SDS011;14714;48.106;11.546;2023-12-20T03:32:32;1.42;;;1.17;;
27199;SDS011;14714;48.106;11.546;2023-12-20T03:34:59;1.10;;;1.00;;
27199;SDS011;14714;48.106;11.546;2023-12-20T03:37:26;1.38;;;0.90;;
27199;SDS011;14714;48.106;11.546;2023-12-20T03:39:54;0.77;;;0.70;;
27199;SDS011;14714;48.106;11.546;2023-12-20T03:42:21;1.42;;;0.90;;
27199;SDS011;14714;48.106;11.546;2023-12-20T03:44:48;1.48;;;1.13;;
27199;SDS011;14714;48.106;11.546;2023-12-20T03:47:15;3.03;;;1.08;;
27199;SDS011;14714;48.106;11.546;2023-12-20T03:49:42;1.00;;;0.90;;
27199;SDS011;14714;48.106;11.546;2023-12-20T03:52:09;1.13;;;0.90;;
27199;SDS011;14714;48.106;11.546;2023-12-20T03:54:36;1.13;;;1.02;;
27199;SDS011;14714;48.106;11.546;2023-12-20T03:57:03;1.00;;;0.90;;
27199;SDS011;14714;48.106;11.546;2023-12-20T03:59:34;3.13;;;1.00;;
27199;SDS011;14714;48.106;11.546;2023-12-20T04:02:02;1.20;;;0.90;;
27199;SDS011;14714;48.106;11.546;2023-12-20T04:04:30;1.08;;;0.93;;
27199;SDS011;14714;48.106;11.546;2023-12-20T04:06:57;1.17;;;0.80;;
27199;SDS011;14714;48.106;11.546;2023-12-20T04:09:24;2.55;;;1.10;;
27199;SDS011;14714;48.106;11.546;2023-12-20T04:11:51;0.90;;;0.90;;
27199;SDS011;14714;48.106;11.546;2023-12-20T04:14:18;1.08;;;0.98;;
27199;SDS011;14714;48.106;11.546;2023-12-20T04:16:45;1.15;;;0.90;;
27199;SDS011;14714;48.106;11.546;2023-12-20T04:19:13;1.08;;;0.98;;
27199;SDS011;14714;48.106;11.546;2023-12-20T04:21:40;1.00;;;0.98;;
27199;SDS011;14714;48.106;11.546;2023-12-20T04:24:07;2.47;;;1.05;;
27199;SDS011;14714;48.106;11.546;2023-12-20T04:26:34;1.13;;;1.02;;
27199;SDS011;14714;48.106;11.546;2023-12-20T04:29:01;1.35;;;1.13;;
27199;SDS011;14714;48.106;11.546;2023-12-20T04:31:28;1.52;;;1.17;;
27199;SDS011;14714;48.106;11.546;2023-12-20T04:33:55;0.90;;;0.90;;
27199;SDS011;14714;48.106;11.546;2023-12-20T04:36:22;0.80;;;0.80;;
27199;SDS011;14714;48.106;11.546;2023-12-20T04:38:49;0.98;;;0.90;;
27199;SDS011;14714;48.106;11.546;2023-12-20T04:41:16;2.28;;;0.90;;
27199;SDS011;14714;48.106;11.546;2023-12-20T04:43:45;1.70;;;1.02;;
27199;SDS011;14714;48.106;11.546;2023-12-20T04:46:11;1.27;;;1.17;;
27199;SDS011;14714;48.106;11.546;2023-12-20T04:48:38;1.65;;;1.10;;
27199;SDS011;14714;48.106;11.546;2023-12-20T04:51:05;1.15;;;1.05;;
27199;SDS011;14714;48.106;11.546;2023-12-20T04:53:32;1.60;;;1.20;;
27199;SDS011;14714;48.106;11.546;2023-12-20T04:55:59;1.52;;;1.40;;
27199;SDS011;14714;48.106;11.546;2023-12-20T04:58:26;1.88;;;1.38;;
27199;SDS011;14714;48.106;11.546;2023-12-20T05:00:53;2.05;;;1.40;;
27199;SDS011;14714;48.106;11.546;2023-12-20T05:03:20;2.20;;;1.60;;
27199;SDS011;14714;48.106;11.546;2023-12-20T05:05:47;3.10;;;1.40;;
27199;SDS011;14714;48.106;11.546;2023-12-20T05:08:14;2.33;;;1.55;;
27199;SDS011;14714;48.106;11.546;2023-12-20T05:10:41;2.03;;;1.40;;
27199;SDS011;14714;48.106;11.546;2023-12-20T05:13:08;3.00;;;1.60;;
27199;SDS011;14714;48.106;11.546;2023-12-20T05:15:35;1.85;;;1.42;;
27199;SDS011;14714;48.106;11.546;2023-12-20T05:18:02;2.25;;;1.70;;
27199;SDS011;14714;48.106;11.546;2023-12-20T05:20:30;2.63;;;1.67;;
27199;SDS011;14714;48.106;11.546;2023-12-20T05:22:57;2.47;;;1.83;;
27199;SDS011;14714;48.106;11.546;2023-12-20T05:25:23;2.78;;;1.77;;
27199;SDS011;14714;48.106;11.546;2023-12-20T05:27:50;2.20;;;1.70;;
27199;SDS011;14714;48.106;11.546;2023-12-20T05:30:17;2.92;;;1.80;;
27199;SDS011;14714;48.106;11.546;2023-12-20T05:32:44;3.63;;;2.00;;
27199;SDS011;14714;48.106;11.546;2023-12-20T05:35:11;2.55;;;1.77;;
27199;SDS011;14714;48.106;11.546;2023-12-20T05:37:38;6.43;;;2.22;;
27199;SDS011;14714;48.106;11.546;2023-12-20T05:40:05;3.78;;;1.67;;
27199;SDS011;14714;48.106;11.546;2023-12-20T05:42:33;2.65;;;1.60;;
27199;SDS011;14714;48.106;11.546;2023-12-20T05:44:59;4.15;;;1.90;;
27199;SDS011;14714;48.106;11.546;2023-12-20T05:47:26;1.92;;;1.60;;
27199;SDS011;14714;48.106;11.546;2023-12-20T05:49:53;3.42;;;1.60;;
27199;SDS011;14714;48.106;11.546;2023-12-20T05:52:20;2.72;;;1.80;;
27199;SDS011;14714;48.106;11.546;2023-12-20T05:54:47;2.13;;;1.60;;
27199;SDS011;14714;48.106;11.546;2023-12-20T05:57:14;2.90;;;1.70;;
27199;SDS011;14714;48.106;11.546;2023-12-20T05:59:41;3.78;;;1.65;;
27199;SDS011;14714;48.106;11.546;2023-12-20T06:02:08;2.70;;;2.00;;
27199;SDS011;14714;48.106;11.546;2023-12-20T06:04:34;2.50;;;1.83;;
27199;SDS011;14714;48.106;11.546;2023-12-20T06:07:01;1.98;;;1.50;;
27199;SDS011;14714;48.106;11.546;2023-12-20T06:09:29;2.58;;;1.90;;
27199;SDS011;14714;48.106;11.546;2023-12-20T06:11:57;2.08;;;1.88;;
27199;SDS011;14714;48.106;11.546;2023-12-20T06:14:24;6.53;;;1.75;;
27199;SDS011;14714;48.106;11.546;2023-12-20T06:16:51;2.75;;;1.70;;
27199;SDS011;14714;48.106;11.546;2023-12-20T06:19:18;2.70;;;1.90;;
27199;SDS011;14714;48.106;11.546;2023-12-20T06:21:45;3.00;;;1.83;;
27199;SDS011;14714;48.106;11.546;2023-12-20T06:24:12;2.65;;;1.80;;
27199;SDS011;14714;48.106;11.546;2023-12-20T06:26:39;5.05;;;2.10;;
27199;SDS011;14714;48.106;11.546;2023-12-20T06:29:06;3.55;;;1.70;;
27199;SDS011;14714;48.106;11.546;2023-12-20T06:31:33;2.58;;;1.83;;
27199;SDS011;14714;48.106;11.546;2023-12-20T06:34:00;3.63;;;1.70;;
27199;SDS011;14714;48.106;11.546;2023-12-20T06:36:27;2.85;;;1.83;;
27199;SDS011;14714;48.106;11.546;2023-12-20T06:38:54;3.10;;;1.60;;
27199;SDS011;14714;48.106;11.546;2023-12-20T06:41:21;2.10;;;1.63;;
27199;SDS011;14714;48.106;11.546;2023-12-20T06:43:50;3.33;;;1.88;;
27199;SDS011;14714;48.106;11.546;2023-12-20T06:46:20;2.30;;;1.52;;
27199;SDS011;14714;48.106;11.546;2023-12-20T06:48:47;2.78;;;1.50;;
27199;SDS011;14714;48.106;11.546;2023-12-20T06:51:14;2.08;;;1.50;;
27199;SDS011;14714;48.106;11.546;2023-12-20T06:53:42;2.10;;;1.73;;
27199;SDS011;14714;48.106;11.546;2023-12-20T06:56:09;4.25;;;1.88;;
27199;SDS011;14714;48.106;11.546;2023-12-20T06:58:40;3.47;;;1.38;;
27199;SDS011;14714;48.106;11.546;2023-12-20T07:01:10;2.88;;;1.52;;
27199;SDS011;14714;48.106;11.546;2023-12-20T07:03:41;1.58;;;1.30;;
27199;SDS011;14714;48.106;11.546;2023-12-20T07:06:09;2.92;;;1.17;;
27199;SDS011;14714;48.106;11.546;2023-12-20T07:08:36;1.38;;;1.20;;
27199;SDS011;14714;48.106;11.546;2023-12-20T07:11:03;2.35;;;1.20;;
27199;SDS011;14714;48.106;11.546;2023-12-20T07:13:30;1.23;;;1.10;;
27199;SDS011;14714;48.106;11.546;2023-12-20T07:15:57;1.20;;;1.00;;
27199;SDS011;14714;48.106;11.546;2023-12-20T07:18:24;1.15;;;1.05;;
27199;SDS011;14714;48.106;11.546;2023-12-20T07:20:51;1.10;;;0.90;;
27199;SDS011;14714;48.106;11.546;2023-12-20T07:23:18;1.25;;;1.13;;
27199;SDS011;14714;48.106;11.546;2023-12-20T07:25:46;1.30;;;1.00;;
27199;SDS011;14714;48.106;11.546;2023-12-20T07:28:13;1.20;;;1.10;;
27199;SDS011;14714;48.106;11.546;2023-12-20T07:30:40;1.25;;;1.00;;
27199;SDS011;14714;48.106;11.546;2023-12-20T07:33:07;1.20;;;1.10;;
27199;SDS011;14714;48.106;11.546;2023-12-20T07:35:35;0.73;;;0.70;;
27199;SDS011;14714;48.106;11.546;2023-12-20T07:38:02;0.90;;;0.90;;
27199;SDS011;14714;48.106;11.546;2023-12-20T07:40:30;1.60;;;1.23;;
27199;SDS011;14714;48.106;11.546;2023-12-20T07:42:57;1.20;;;1.10;;
27199;SDS011;14714;48.106;11.546;2023-12-20T07:45:24;1.50;;;1.40;;
27199;SDS011;14714;48.106;11.546;2023-12-20T07:47:51;1.83;;;1.10;;
27199;SDS011;14714;48.106;11.546;2023-12-20T07:50:18;1.55;;;1.25;;
27199;SDS011;14714;48.106;11.546;2023-12-20T07:52:45;1.20;;;1.10;;
27199;SDS011;14714;48.106;11.546;2023-12-20T07:55:12;1.55;;;1.20;;
27199;SDS011;14714;48.106;11.546;2023-12-20T07:57:39;1.50;;;1.20;;
27199;SDS011;14714;48.106;11.546;2023-12-20T08:00:06;1.20;;;1.10;;
27199;SDS011;14714;48.106;11.546;2023-12-20T08:02:33;2.60;;;1.00;;
27199;SDS011;14714;48.106;11.546;2023-12-20T08:05:00;2.13;;;1.10;;
27199;SDS011;14714;48.106;11.546;2023-12-20T08:07:27;2.13;;;1.10;;
27199;SDS011;14714;48.106;11.546;2023-12-20T08:09:54;2.35;;;1.30;;
27199;SDS011;14714;48.106;11.546;2023-12-20T08:12:23;1.25;;;0.98;;
27199;SDS011;14714;48.106;11.546;2023-12-20T08:14:50;1.27;;;1.10;;
27199;SDS011;14714;48.106;11.546;2023-12-20T08:17:16;2.05;;;1.30;;
27199;SDS011;14714;48.106;11.546;2023-12-20T08:19:45;1.23;;;1.13;;
27199;SDS011;14714;48.106;11.546;2023-12-20T08:22:12;1.00;;;0.90;;
27199;SDS011;14714;48.106;11.546;2023-12-20T08:24:39;1.02;;;1.00;;
27199;SDS011;14714;48.106;11.546;2023-12-20T08:27:06;1.40;;;1.05;;
27199;SDS011;14714;48.106;11.546;2023-12-20T08:29:33;1.45;;;0.98;;
27199;SDS011;14714;48.106;11.546;2023-12-20T08:31:59;1.35;;;1.00;;
27199;SDS011;14714;48.106;11.546;2023-12-20T08:34:27;1.33;;;0.90;;
27199;SDS011;14714;48.106;11.546;2023-12-20T08:36:54;1.30;;;0.90;;
27199;SDS011;14714;48.106;11.546;2023-12-20T08:39:21;1.10;;;1.00;;
27199;SDS011;14714;48.106;11.546;2023-12-20T08:41:48;1.20;;;1.10;;
27199;SDS011;14714;48.106;11.546;2023-12-20T08:44:14;1.13;;;1.00;;
27199;SDS011;14714;48.106;11.546;2023-12-20T08:46:41;1.20;;;0.95;;
27199;SDS011;14714;48.106;11.546;2023-12-20T08:49:09;1.23;;;1.13;;
27199;SDS011;14714;48.106;11.546;2023-12-20T08:51:36;0.93;;;0.90;;
27199;SDS011;14714;48.106;11.546;2023-12-20T08:54:06;1.60;;;1.17;;
27199;SDS011;14714;48.106;11.546;2023-12-20T08:56:36;0.55;;;0.55;;
27199;SDS011;14714;48.106;11.546;2023-12-20T08:59:03;1.45;;;1.00;;
27199;SDS011;14714;48.106;11.546;2023-12-20T09:01:30;0.82;;;0.80;;
27199;SDS011;14714;48.106;11.546;2023-12-20T09:03:57;0.90;;;0.80;;
27199;SDS011;14714;48.106;11.546;2023-12-20T09:06:24;1.15;;;1.02;;
27199;SDS011;14714;48.106;11.546;2023-12-20T09:08:51;1.10;;;1.00;;
27199;SDS011;14714;48.106;11.546;2023-12-20T09:11:18;1.00;;;0.90;;
27199;SDS011;14714;48.106;11.546;2023-12-20T09:13:45;2.60;;;0.90;;
27199;SDS011;14714;48.106;11.546;2023-12-20T09:16:12;2.33;;;0.75;;
27199;SDS011;14714;48.106;11.546;2023-12-20T09:18:42;0.95;;;0.85;;
27199;SDS011;14714;48.106;11.546;2023-12-20T09:21:09;0.90;;;0.90;;
27199;SDS011;14714;48.106;11.546;2023-12-20T09:23:36;1.00;;;0.98;;
27199;SDS011;14714;48.106;11.546;2023-12-20T09:26:03;0.95;;;0.80;;
27199;SDS011;14714;48.106;11.546;2023-12-20T09:28:30;0.90;;;0.80;;
27199;SDS011;14714;48.106;11.546;2023-12-20T09:31:02;2.97;;;0.90;;
27199;SDS011;14714;48.106;11.546;2023-12-20T09:33:30;0.80;;;0.70;;
27199;SDS011;14714;48.106;11.546;2023-12-20T09:35:57;0.70;;;0.70;;
27199;SDS011;14714;48.106;11.546;2023-12-20T09:38:24;1.10;;;0.80;;
27199;SDS011;14714;48.106;11.546;2023-12-20T09:40:51;1.00;;;0.90;;
27199;SDS011;14714;48.106;11.546;2023-12-20T09:43:19;1.33;;;1.00;;
27199;SDS011;14714;48.106;11.546;2023-12-20T09:45:47;1.20;;;0.98;;
27199;SDS011;14714;48.106;11.546;2023-12-20T09:48:15;0.82;;;0.82;;
27199;SDS011;14714;48.106;11.546;2023-12-20T09:50:45;1.20;;;0.90;;
27199;SDS011;14714;48.106;11.546;2023-12-20T09:53:18;0.98;;;0.98;;
27199;SDS011;14714;48.106;11.546;2023-12-20T09:55:47;1.15;;;0.95;;
27199;SDS011;14714;48.106;11.546;2023-12-20T09:58:14;0.95;;;0.90;;
27199;SDS011;14714;48.106;11.546;2023-12-20T10:00:41;1.25;;;1.00;;
27199;SDS011;14714;48.106;11.546;2023-12-20T10:03:08;1.17;;;1.08;;
27199;SDS011;14714;48.106;11.546;2023-12-20T10:05:35;1.17;;;1.05;;
27199;SDS011;14714;48.106;11.546;2023-12-20T10:08:03;1.20;;;1.10;;
27199;SDS011;14714;48.106;11.546;2023-12-20T10:10:30;1.42;;;1.05;;
27199;SDS011;14714;48.106;11.546;2023-12-20T10:13:11;1.77;;;1.15;;
27199;SDS011;14714;48.106;11.546;2023-12-20T10:15:39;1.48;;;1.25;;
27199;SDS011;14714;48.106;11.546;2023-12-20T10:18:08;1.17;;;1.08;;
27199;SDS011;14714;48.106;11.546;2023-12-20T10:20:35;1.75;;;1.23;;
27199;SDS011;14714;48.106;11.546;2023-12-20T10:23:02;1.20;;;1.10;;
27199;SDS011;14714;48.106;11.546;2023-12-20T10:25:30;1.13;;;1.02;;
27199;SDS011;14714;48.106;11.546;2023-12-20T10:31:00;1.38;;;0.93;;
27199;SDS011;14714;48.106;11.546;2023-12-20T10:33:28;1.30;;;0.90;;
27199;SDS011;14714;48.106;11.546;2023-12-20T10:35:59;1.50;;;1.10;;
27199;SDS011;14714;48.106;11.546;2023-12-20T10:38:26;1.20;;;1.08;;
27199;SDS011;14714;48.106;11.546;2023-12-20T10:40:56;1.20;;;1.00;;
27199;SDS011;14714;48.106;11.546;2023-12-20T10:43:27;1.20;;;1.10;;
27199;SDS011;14714;48.106;11.546;2023-12-20T10:45:55;1.50;;;1.05;;
27199;SDS011;14714;48.106;11.546;2023-12-20T10:48:23;0.93;;;0.90;;
27199;SDS011;14714;48.106;11.546;2023-12-20T10:50:56;1.42;;;0.93;;
27199;SDS011;14714;48.106;11.546;2023-12-20T10:53:24;0.98;;;0.82;;
27199;SDS011;14714;48.106;11.546;2023-12-20T10:55:52;1.05;;;1.00;;
27199;SDS011;14714;48.106;11.546;2023-12-20T10:58:24;2.25;;;1.00;;
27199;SDS011;14714;48.106;11.546;2023-12-20T11:00:53;1.40;;;0.82;;
27199;SDS011;14714;48.106;11.546;2023-12-20T11:03:26;1.23;;;0.98;;
27199;SDS011;14714;48.106;11.546;2023-12-20T11:11:21;1.20;;;0.98;;
27199;SDS011;14714;48.106;11.546;2023-12-20T11:14:08;0.80;;;0.80;;
27199;SDS011;14714;48.106;11.546;2023-12-20T11:17:06;1.52;;;0.95;;
27199;SDS011;14714;48.106;11.546;2023-12-20T11:22:25;1.20;;;1.00;;
27199;SDS011;14714;48.106;11.546;2023-12-20T11:24:53;1.20;;;1.10;;
27199;SDS011;14714;48.106;11.546;2023-12-20T11:27:22;1.97;;;1.10;;
27199;SDS011;14714;48.106;11.546;2023-12-20T11:29:53;1.75;;;1.05;;
27199;SDS011;14714;48.106;11.546;2023-12-20T11:34:59;3.03;;;1.17;;
27199;SDS011;14714;48.106;11.546;2023-12-20T11:37:32;1.20;;;1.10;;
27199;SDS011;14714;48.106;11.546;2023-12-20T11:40:03;1.60;;;1.25;;
27199;SDS011;14714;48.106;11.546;2023-12-20T11:42:39;1.80;;;1.20;;
27199;SDS011;14714;48.106;11.546;2023-12-20T11:45:10;1.80;;;1.20;;
27199;SDS011;14714;48.106;11.546;2023-12-20T11:47:37;2.90;;;1.50;;
27199;SDS011;14714;48.106;11.546;2023-12-20T11:50:05;2.97;;;1.67;;
27199;SDS011;14714;48.106;11.546;2023-12-20T11:52:32;1.48;;;1.35;;
27199;SDS011;14714;48.106;11.546;2023-12-20T11:54:59;2.78;;;1.50;;
27199;SDS011;14714;48.106;11.546;2023-12-20T11:57:26;3.90;;;1.80;;
27199;SDS011;14714;48.106;11.546;2023-12-20T11:59:54;1.48;;;1.20;;
27199;SDS011;14714;48.106;11.546;2023-12-20T12:02:21;2.30;;;1.60;;
27199;SDS011;14714;48.106;11.546;2023-12-20T12:04:48;1.42;;;1.30;;
27199;SDS011;14714;48.106;11.546;2023-12-20T12:07:17;2.30;;;1.48;;
27199;SDS011;14714;48.106;11.546;2023-12-20T12:09:44;1.80;;;1.23;;
27199;SDS011;14714;48.106;11.546;2023-12-20T12:12:11;2.38;;;1.42;;
27199;SDS011;14714;48.106;11.546;2023-12-20T12:14:39;1.40;;;1.30;;
27199;SDS011;14714;48.106;11.546;2023-12-20T12:17:13;2.25;;;1.40;;
27199;SDS011;14714;48.106;11.546;2023-12-20T12:19:41;1.50;;;1.40;;
27199;SDS011;14714;48.106;11.546;2023-12-20T12:22:15;2.40;;;1.50;;
27199;SDS011;14714;48.106;11.546;2023-12-20T12:24:46;1.67;;;1.50;;
27199;SDS011;14714;48.106;11.546;2023-12-20T12:27:13;2.40;;;1.52;;
27199;SDS011;14714;48.106;11.546;2023-12-20T12:29:40;1.83;;;1.50;;
27199;SDS011;14714;48.106;11.546;2023-12-20T12:32:25;1.30;;;1.20;;
27199;SDS011;14714;48.106;11.546;2023-12-20T12:34:52;2.05;;;1.30;;
27199;SDS011;14714;48.106;11.546;2023-12-20T12:37:19;1.48;;;1.33;;
27199;SDS011;14714;48.106;11.546;2023-12-20T12:39:46;1.35;;;1.15;;
27199;SDS011;14714;48.106;11.546;2023-12-20T12:42:13;1.50;;;1.35;;
27199;SDS011;14714;48.106;11.546;2023-12-20T12:44:40;1.67;;;1.42;;
27199;SDS011;14714;48.106;11.546;2023-12-20T12:47:07;1.95;;;1.67;;
27199;SDS011;14714;48.106;11.546;2023-12-20T12:49:34;1.50;;;1.33;;
27199;SDS011;14714;48.106;11.546;2023-12-20T12:52:01;2.30;;;1.40;;
27199;SDS011;14714;48.106;11.546;2023-12-20T12:54:29;2.28;;;1.50;;
27199;SDS011;14714;48.106;11.546;2023-12-20T12:56:56;1.80;;;1.65;;
27199;SDS011;14714;48.106;11.546;2023-12-20T12:59:25;1.45;;;1.35;;
27199;SDS011;14714;48.106;11.546;2023-12-20T13:01:52;1.70;;;1.60;;
27199;SDS011;14714;48.106;11.546;2023-12-20T13:04:20;1.98;;;1.50;;
27199;SDS011;14714;48.106;11.546;2023-12-20T13:06:47;2.60;;;1.70;;
27199;SDS011;14714;48.106;11.546;2023-12-20T13:09:14;2.20;;;1.63;;
27199;SDS011;14714;48.106;11.546;2023-12-20T13:11:41;1.98;;;1.60;;
27199;SDS011;14714;48.106;11.546;2023-12-20T13:14:08;1.98;;;1.50;;
27199;SDS011;14714;48.106;11.546;2023-12-20T13:16:37;1.70;;;1.52;;
27199;SDS011;14714;48.106;11.546;2023-12-20T13:19:04;2.50;;;1.90;;
27199;SDS011;14714;48.106;11.546;2023-12-20T13:21:31;1.90;;;1.80;;
27199;SDS011;14714;48.106;11.546;2023-12-20T13:23:58;3.85;;;2.00;;
27199;SDS011;14714;48.106;11.546;2023-12-20T13:26:25;2.10;;;1.67;;
27199;SDS011;14714;48.106;11.546;2023-12-20T13:28:53;2.25;;;1.70;;
27199;SDS011;14714;48.106;11.546;2023-12-20T13:31:20;2.45;;;1.80;;
27199;SDS011;14714;48.106;11.546;2023-12-20T13:33:48;2.42;;;1.60;;
27199;SDS011;14714;48.106;11.546;2023-12-20T13:36:15;2.65;;;1.80;;
27199;SDS011;14714;48.106;11.546;2023-12-20T13:38:42;3.10;;;1.80;;
27199;SDS011;14714;48.106;11.546;2023-12-20T13:41:09;3.05;;;1.98;;
27199;SDS011;14714;48.106;11.546;2023-12-20T13:43:36;2.70;;;1.77;;
27199;SDS011;14714;48.106;11.546;2023-12-20T13:46:03;4.15;;;2.03;;
27199;SDS011;14714;48.106;11.546;2023-12-20T13:48:30;4.88;;;2.10;;
27199;SDS011;14714;48.106;11.546;2023-12-20T13:50:57;4.05;;;2.10;;
27199;SDS011;14714;48.106;11.546;2023-12-20T13:53:24;2.83;;;1.63;;
27199;SDS011;14714;48.106;11.546;2023-12-20T13:55:50;4.68;;;2.03;;
27199;SDS011;14714;48.106;11.546;2023-12-20T13:58:18;3.67;;;2.03;;
27199;SDS011;14714;48.106;11.546;2023-12-20T14:00:44;4.28;;;1.95;;
27199;SDS011;14714;48.106;11.546;2023-12-20T14:03:11;3.70;;;1.88;;
27199;SDS011;14714;48.106;11.546;2023-12-20T14:05:38;4.15;;;2.00;;
27199;SDS011;14714;48.106;11.546;2023-12-20T14:08:06;3.45;;;2.00;;
27199;SDS011;14714;48.106;11.546;2023-12-20T14:10:33;3.05;;;1.92;;
27199;SDS011;14714;48.106;11.546;2023-12-20T14:13:00;6.05;;;2.30;;
27199;SDS011;14714;48.106;11.546;2023-12-20T14:15:27;4.55;;;2.20;;
27199;SDS011;14714;48.106;11.546;2023-12-20T14:17:54;3.20;;;2.15;;
27199;SDS011;14714;48.106;11.546;2023-12-20T14:20:22;3.13;;;1.98;;
27199;SDS011;14714;48.106;11.546;2023-12-20T14:22:49;3.58;;;2.05;;
27199;SDS011;14714;48.106;11.546;2023-12-20T14:25:15;4.55;;;2.25;;
27199;SDS011;14714;48.106;11.546;2023-12-20T14:27:43;4.13;;;2.10;;
27199;SDS011;14714;48.106;11.546;2023-12-20T14:30:11;3.25;;;2.40;;
27199;SDS011;14714;48.106;11.546;2023-12-20T14:32:41;5.60;;;2.33;;
27199;SDS011;14714;48.106;11.546;2023-12-20T14:35:08;3.92;;;2.38;;
27199;SDS011;14714;48.106;11.546;2023-12-20T14:37:36;4.38;;;2.10;;
27199;SDS011;14714;48.106;11.546;2023-12-20T14:40:07;4.28;;;2.35;;
27199;SDS011;14714;48.106;11.546;2023-12-20T14:42:42;3.90;;;2.05;;
27199;SDS011;14714;48.106;11.546;2023-12-20T14:45:09;3.88;;;2.40;;
27199;SDS011;14714;48.106;11.546;2023-12-20T14:47:36;4.93;;;2.10;;
27199;SDS011;14714;48.106;11.546;2023-12-20T14:50:04;5.00;;;2.47;;